createdAt,value
2023-06-30T00:00:13.756Z,39.20
2023-06-30T00:02:42.924Z,39.10
2023-06-30T00:05:11.044Z,38.90
2023-06-30T00:07:38.967Z,38.80
2023-06-30T00:10:07.489Z,38.40
2023-06-30T00:12:34.879Z,38.40
2023-06-30T00:15:02.502Z,38.50
2023-06-30T00:17:29.923Z,38.60
2023-06-30T00:19:59.028Z,38.50
2023-06-30T00:22:26.556Z,38.40
2023-06-30T00:24:57.095Z,38.90
2023-06-30T00:27:24.849Z,39.40
2023-06-30T00:29:52.303Z,39.90
2023-06-30T00:32:19.290Z,40.40
2023-06-30T00:34:46.500Z,40.60
2023-06-30T00:37:13.528Z,41.40
2023-06-30T00:39:40.351Z,41.40
2023-06-30T00:42:07.449Z,41.90
2023-06-30T00:44:34.353Z,42.20
2023-06-30T00:47:02.249Z,42.50
2023-06-30T00:49:30.117Z,42.80
2023-06-30T00:51:57.008Z,42.80
2023-06-30T00:54:24.300Z,44.00
2023-06-30T00:56:51.184Z,43.90
2023-06-30T00:59:18.102Z,43.80
2023-06-30T01:01:51.434Z,44.00
2023-06-30T01:04:18.637Z,43.60
2023-06-30T01:07:03.728Z,43.70
2023-06-30T01:09:37.254Z,43.50
2023-06-30T01:12:04.856Z,43.70
2023-06-30T01:14:32.740Z,44.10
2023-06-30T01:17:00.925Z,44.50
2023-06-30T01:19:40.202Z,44.50
2023-06-30T01:22:23.860Z,44.30
2023-06-30T01:24:52.247Z,44.40
2023-06-30T01:27:21.906Z,44.20
2023-06-30T01:29:50.240Z,43.90
2023-06-30T01:32:18.217Z,43.40
2023-06-30T01:34:46.529Z,43.60
2023-06-30T01:37:14.646Z,43.90
2023-06-30T01:39:41.569Z,43.30
2023-06-30T01:42:09.008Z,43.20
2023-06-30T01:44:37.455Z,42.90
2023-06-30T01:47:06.439Z,42.70
2023-06-30T01:49:34.728Z,42.40
2023-06-30T01:52:02.436Z,42.10
2023-06-30T01:54:29.384Z,41.80
2023-06-30T01:56:56.333Z,42.20
2023-06-30T01:59:23.681Z,42.20
2023-06-30T02:01:50.562Z,42.10
2023-06-30T02:04:17.891Z,43.00
2023-06-30T02:06:44.814Z,43.20
2023-06-30T02:09:13.592Z,43.50
2023-06-30T02:11:40.703Z,43.80
2023-06-30T02:14:07.624Z,44.20
2023-06-30T02:16:34.586Z,44.50
2023-06-30T02:19:01.492Z,44.60
2023-06-30T02:21:28.294Z,44.60
2023-06-30T02:23:55.170Z,45.30
2023-06-30T02:26:22.016Z,45.20
2023-06-30T02:28:48.869Z,45.30
2023-06-30T02:31:15.756Z,46.00
2023-06-30T02:33:42.625Z,46.10
2023-06-30T02:36:09.766Z,45.60
2023-06-30T02:38:36.743Z,45.60
2023-06-30T02:41:03.631Z,45.60
2023-06-30T02:43:30.508Z,45.40
2023-06-30T02:45:57.407Z,45.30
2023-06-30T02:48:24.326Z,45.50
2023-06-30T02:50:51.132Z,45.90
2023-06-30T02:53:18.032Z,46.60
2023-06-30T02:55:45.192Z,47.10
2023-06-30T02:58:12.324Z,46.60
2023-06-30T03:00:41.109Z,46.90
2023-06-30T03:03:08.106Z,46.40
2023-06-30T03:05:38.322Z,46.10
2023-06-30T03:08:05.580Z,46.10
2023-06-30T03:10:32.648Z,46.10
2023-06-30T03:12:59.487Z,46.50
2023-06-30T03:15:26.366Z,46.10
2023-06-30T03:17:54.962Z,46.20
2023-06-30T03:20:22.432Z,46.30
2023-06-30T03:22:49.379Z,46.10
2023-06-30T03:25:16.246Z,46.10
2023-06-30T03:27:43.089Z,45.70
2023-06-30T03:30:10.474Z,46.10
2023-06-30T03:32:37.413Z,45.80
2023-06-30T03:35:04.681Z,46.00
2023-06-30T03:37:32.430Z,46.00
2023-06-30T03:40:02.127Z,46.20
2023-06-30T03:42:28.968Z,46.20
2023-06-30T03:44:55.877Z,45.60
2023-06-30T03:47:22.689Z,46.10
2023-06-30T03:49:49.507Z,46.40
2023-06-30T03:52:16.521Z,46.00
2023-06-30T03:54:43.725Z,46.20
2023-06-30T03:57:10.617Z,46.20
2023-06-30T03:59:37.454Z,46.00
2023-06-30T04:02:04.563Z,46.60
2023-06-30T04:04:31.461Z,46.80
2023-06-30T04:06:58.386Z,46.80
2023-06-30T04:09:25.320Z,47.70
2023-06-30T04:11:52.234Z,47.30
2023-06-30T04:14:19.221Z,47.50
2023-06-30T04:16:46.158Z,47.80
2023-06-30T04:19:15.381Z,47.80
2023-06-30T04:21:42.295Z,47.70
2023-06-30T04:24:09.213Z,47.10
2023-06-30T04:26:36.435Z,47.00
2023-06-30T04:29:03.643Z,46.90
2023-06-30T04:31:30.543Z,46.90
2023-06-30T04:33:57.450Z,46.80
2023-06-30T04:36:24.361Z,46.90
2023-06-30T04:38:52.138Z,46.90
2023-06-30T04:41:19.656Z,46.80
2023-06-30T04:43:47.911Z,46.80
2023-06-30T04:46:14.814Z,46.80
2023-06-30T04:48:41.753Z,46.30
2023-06-30T04:51:08.660Z,46.40
2023-06-30T04:53:36.886Z,46.90
2023-06-30T04:56:03.860Z,46.40
2023-06-30T04:58:30.705Z,46.60
2023-06-30T05:00:58.215Z,46.60
2023-06-30T05:03:25.134Z,47.40
2023-06-30T05:05:51.980Z,47.60
2023-06-30T05:08:18.830Z,46.90
2023-06-30T05:10:45.733Z,46.80
2023-06-30T05:13:12.515Z,46.70
2023-06-30T05:15:39.437Z,47.10
2023-06-30T05:18:07.267Z,47.20
2023-06-30T05:20:35.200Z,47.00
2023-06-30T05:23:02.084Z,45.00
2023-06-30T05:25:28.968Z,45.50
2023-06-30T05:27:55.983Z,45.10
2023-06-30T05:30:22.949Z,44.50
2023-06-30T05:32:49.843Z,44.00
2023-06-30T05:35:16.861Z,43.30
2023-06-30T05:37:43.729Z,42.80
2023-06-30T05:40:11.079Z,42.10
2023-06-30T05:42:37.964Z,42.10
2023-06-30T05:45:05.147Z,42.10
2023-06-30T05:47:32.073Z,42.90
2023-06-30T05:49:58.972Z,42.50
2023-06-30T05:52:26.367Z,42.20
2023-06-30T05:54:53.272Z,41.90
2023-06-30T05:57:20.169Z,41.90
2023-06-30T05:59:47.044Z,41.50
2023-06-30T06:02:13.923Z,41.20
2023-06-30T06:04:41.072Z,41.10
2023-06-30T06:07:08.009Z,40.70
2023-06-30T06:09:35.699Z,41.30
2023-06-30T06:12:03.601Z,41.50
2023-06-30T06:14:30.435Z,41.90
2023-06-30T06:16:57.404Z,42.20
2023-06-30T06:19:24.269Z,41.90
2023-06-30T06:21:51.108Z,42.40
2023-06-30T06:24:18.664Z,42.50
2023-06-30T06:26:45.757Z,42.60
2023-06-30T06:29:15.747Z,42.00
2023-06-30T06:31:45.401Z,42.00
2023-06-30T06:34:12.603Z,42.00
2023-06-30T06:36:39.467Z,41.70
2023-06-30T06:39:07.663Z,42.10
2023-06-30T06:41:34.495Z,43.20
2023-06-30T06:44:01.263Z,43.50
2023-06-30T06:46:29.116Z,43.20
2023-06-30T06:48:56.240Z,42.90
2023-06-30T06:51:23.880Z,43.20
2023-06-30T06:53:57.182Z,43.50
2023-06-30T06:56:24.038Z,43.20
2023-06-30T06:58:50.959Z,43.10
2023-06-30T07:01:18.048Z,44.00
2023-06-30T07:03:46.832Z,43.40
2023-06-30T07:06:13.741Z,43.60
2023-06-30T07:08:40.640Z,43.60
2023-06-30T07:11:12.094Z,43.40
2023-06-30T07:13:39.547Z,44.10
2023-06-30T07:16:07.134Z,44.00
2023-06-30T07:18:35.376Z,44.00
2023-06-30T07:21:03.132Z,43.90
2023-06-30T07:23:30.065Z,44.10
2023-06-30T07:25:57.128Z,43.70
2023-06-30T07:28:24.075Z,44.20
2023-06-30T07:30:50.945Z,44.40
2023-06-30T07:33:18.932Z,44.60
2023-06-30T07:35:46.173Z,44.00
2023-06-30T07:38:13.513Z,43.80
2023-06-30T07:43:10.148Z,44.30
2023-06-30T07:45:37.618Z,44.70
2023-06-30T07:48:04.861Z,43.90
2023-06-30T07:50:31.919Z,44.30
2023-06-30T07:52:58.731Z,44.00
2023-06-30T07:55:25.719Z,44.40
2023-06-30T07:57:53.058Z,45.20
2023-06-30T08:00:20.340Z,45.20
2023-06-30T08:02:47.902Z,44.90
2023-06-30T08:05:15.296Z,45.50
2023-06-30T08:07:48.004Z,45.80
2023-06-30T08:10:18.147Z,45.90
2023-06-30T08:12:45.054Z,45.80
2023-06-30T08:15:12.007Z,46.10
2023-06-30T08:17:48.028Z,46.40
2023-06-30T08:20:20.021Z,47.20
2023-06-30T08:22:47.259Z,47.60
2023-06-30T08:25:14.270Z,47.40
2023-06-30T08:27:41.148Z,48.10
2023-06-30T08:30:08.563Z,48.50
2023-06-30T08:32:35.544Z,47.80
2023-06-30T08:35:02.582Z,48.80
2023-06-30T08:37:29.520Z,47.80
2023-06-30T08:39:56.347Z,48.40
2023-06-30T08:42:27.771Z,48.70
2023-06-30T08:44:55.889Z,50.80
2023-06-30T08:47:26.670Z,53.60
2023-06-30T08:49:55.282Z,54.70
2023-06-30T08:52:23.183Z,57.30
2023-06-30T08:54:50.073Z,58.30
2023-06-30T08:57:18.683Z,58.70
2023-06-30T08:59:46.240Z,60.60
2023-06-30T09:02:13.890Z,60.50
2023-06-30T09:04:44.766Z,60.80
2023-06-30T09:07:24.065Z,61.90
2023-06-30T09:09:54.177Z,62.90
2023-06-30T09:12:21.660Z,64.00
2023-06-30T09:14:51.263Z,64.80
2023-06-30T09:17:19.411Z,65.70
2023-06-30T09:19:46.570Z,66.10
2023-06-30T09:22:52.905Z,66.40
2023-06-30T09:25:02.139Z,66.90
2023-06-30T09:27:29.173Z,65.90
2023-06-30T09:29:56.916Z,66.90
2023-06-30T09:32:32.917Z,67.20
2023-06-30T09:35:09.393Z,67.00
2023-06-30T09:37:45.430Z,67.60
2023-06-30T09:40:25.858Z,68.00
2023-06-30T09:42:56.573Z,67.80
2023-06-30T09:45:23.364Z,68.90
2023-06-30T09:47:54.513Z,69.10
2023-06-30T09:50:34.415Z,69.10
2023-06-30T09:53:02.735Z,68.60
2023-06-30T09:55:29.573Z,69.60
2023-06-30T09:57:59.247Z,70.40
2023-06-30T10:00:55.121Z,70.00
2023-06-30T10:03:20.669Z,71.00
2023-06-30T10:05:51.447Z,70.10
2023-06-30T10:08:20.076Z,69.80
2023-06-30T10:10:47.191Z,70.00
2023-06-30T10:13:16.802Z,70.00
2023-06-30T10:15:44.805Z,70.30
2023-06-30T10:18:16.393Z,70.60
2023-06-30T10:20:48.873Z,71.00
2023-06-30T10:23:19.609Z,71.20
2023-06-30T10:25:47.156Z,71.20
2023-06-30T10:28:15.452Z,70.90
2023-06-30T10:30:43.158Z,70.00
2023-06-30T10:33:10.114Z,67.60
2023-06-30T10:35:37.553Z,67.80
2023-06-30T10:38:05.057Z,66.50
2023-06-30T10:40:32.127Z,65.60
2023-06-30T10:43:00.376Z,63.00
2023-06-30T10:45:29.207Z,62.60
2023-06-30T10:47:56.324Z,63.40
2023-06-30T10:50:24.001Z,63.10
2023-06-30T10:52:52.983Z,62.20
2023-06-30T10:55:27.210Z,62.10
2023-06-30T10:57:56.042Z,59.90
2023-06-30T11:00:27.806Z,61.00
2023-06-30T11:02:59.588Z,60.60
2023-06-30T11:05:26.533Z,60.40
2023-06-30T11:08:04.962Z,60.40
2023-06-30T11:10:37.465Z,57.90
2023-06-30T11:13:10.707Z,58.10
2023-06-30T11:15:43.999Z,57.90
2023-06-30T11:18:12.820Z,56.00
2023-06-30T11:20:40.206Z,54.40
2023-06-30T11:23:18.836Z,56.50
2023-06-30T11:25:45.654Z,53.30
2023-06-30T11:28:13.526Z,54.40
2023-06-30T11:30:40.561Z,54.50
2023-06-30T11:33:08.330Z,54.00
2023-06-30T11:35:36.802Z,52.90
2023-06-30T11:38:03.998Z,53.60
2023-06-30T11:40:30.871Z,51.10
2023-06-30T11:42:57.696Z,51.20
2023-06-30T11:45:28.982Z,50.00
2023-06-30T11:47:57.264Z,50.40
2023-06-30T11:50:26.303Z,48.70
2023-06-30T11:52:53.409Z,48.90
2023-06-30T11:55:21.290Z,47.00
2023-06-30T11:57:48.220Z,46.00
2023-06-30T12:00:20.918Z,48.20
2023-06-30T12:02:52.252Z,47.60
2023-06-30T12:05:27.497Z,48.40
2023-06-30T12:07:59.224Z,47.40
2023-06-30T12:10:39.754Z,47.00
2023-06-30T12:13:08.423Z,47.90
2023-06-30T12:15:39.658Z,46.40
2023-06-30T12:18:06.760Z,45.90
2023-06-30T12:20:36.383Z,46.70
2023-06-30T12:23:06.118Z,48.00
2023-06-30T12:25:37.232Z,47.50
2023-06-30T12:28:08.176Z,46.50
2023-06-30T12:30:35.197Z,47.50
2023-06-30T12:33:03.056Z,44.50
2023-06-30T12:35:30.759Z,44.80
2023-06-30T12:37:58.050Z,44.80
2023-06-30T12:40:28.613Z,45.80
2023-06-30T12:42:56.085Z,46.80
2023-06-30T12:45:22.977Z,47.00
2023-06-30T12:47:50.097Z,46.00
2023-06-30T12:50:17.072Z,46.70
2023-06-30T12:52:43.944Z,44.90
2023-06-30T12:55:11.272Z,44.90
2023-06-30T12:57:38.345Z,44.60
2023-06-30T13:00:11.761Z,45.30
2023-06-30T13:02:39.089Z,45.30
2023-06-30T13:05:07.478Z,45.30
2023-06-30T13:07:35.669Z,44.80
2023-06-30T13:10:04.204Z,45.50
2023-06-30T13:12:31.293Z,44.40
2023-06-30T13:14:58.890Z,44.00
2023-06-30T13:17:26.393Z,44.10
2023-06-30T13:19:53.580Z,44.50
2023-06-30T13:22:20.941Z,46.50
2023-06-30T13:24:49.694Z,45.70
2023-06-30T13:27:17.091Z,45.60
2023-06-30T13:29:50.891Z,46.20
2023-06-30T13:32:18.709Z,46.60
2023-06-30T13:34:47.250Z,46.70
2023-06-30T13:37:14.471Z,46.50
2023-06-30T13:39:41.538Z,46.70
2023-06-30T13:42:09.987Z,47.80
2023-06-30T13:44:37.648Z,46.50
2023-06-30T13:47:04.678Z,47.10
2023-06-30T13:49:31.665Z,46.20
2023-06-30T13:51:58.772Z,46.10
2023-06-30T13:54:25.783Z,46.70
2023-06-30T13:56:53.816Z,47.00
2023-06-30T13:59:20.861Z,46.30
2023-06-30T14:01:48.047Z,45.90
2023-06-30T14:04:15.536Z,46.80
2023-06-30T14:06:42.473Z,47.30
2023-06-30T14:09:12.498Z,48.40
2023-06-30T14:11:39.897Z,48.90
2023-06-30T14:14:07.259Z,48.90
2023-06-30T14:16:36.017Z,49.00
2023-06-30T14:19:04.627Z,48.90
2023-06-30T14:21:32.284Z,48.10
2023-06-30T14:23:59.609Z,47.10
2023-06-30T14:26:27.140Z,46.60
2023-06-30T14:28:54.343Z,45.50
2023-06-30T14:31:21.663Z,45.40
2023-06-30T14:33:48.972Z,45.60
2023-06-30T14:36:15.886Z,45.50
2023-06-30T14:38:42.714Z,46.60
2023-06-30T14:41:09.645Z,46.80
2023-06-30T14:43:36.578Z,47.80
2023-06-30T14:46:03.433Z,47.30
2023-06-30T14:48:30.294Z,48.20
2023-06-30T14:50:57.126Z,48.20
2023-06-30T14:53:24.052Z,48.80
2023-06-30T14:55:50.978Z,48.50
2023-06-30T14:58:17.864Z,50.70
2023-06-30T15:00:44.738Z,50.90
2023-06-30T15:03:11.846Z,52.00
2023-06-30T15:05:38.744Z,52.70
2023-06-30T15:08:07.156Z,53.20
2023-06-30T15:10:34.238Z,53.20
2023-06-30T15:13:01.462Z,51.30
2023-06-30T15:15:28.421Z,50.10
2023-06-30T15:17:55.337Z,49.10
2023-06-30T15:20:22.363Z,49.20
2023-06-30T15:22:50.255Z,48.70
2023-06-30T15:25:25.602Z,49.40
2023-06-30T15:27:52.938Z,49.10
2023-06-30T15:30:20.583Z,49.90
2023-06-30T15:32:48.044Z,50.70
2023-06-30T15:35:15.295Z,50.90
2023-06-30T15:37:42.409Z,50.90
2023-06-30T15:40:09.812Z,51.50
2023-06-30T15:42:36.764Z,51.80
2023-06-30T15:45:04.252Z,51.70
2023-06-30T15:47:31.104Z,52.30
2023-06-30T15:49:58.117Z,52.60
2023-06-30T15:52:25.019Z,53.40
2023-06-30T15:55:12.566Z,53.50
2023-06-30T15:57:39.899Z,53.00
2023-06-30T16:00:08.552Z,54.60
2023-06-30T16:02:36.699Z,54.10
2023-06-30T16:05:04.519Z,54.30
2023-06-30T16:07:31.573Z,54.80
2023-06-30T16:09:59.808Z,54.60
2023-06-30T16:12:26.817Z,54.50
2023-06-30T16:14:53.720Z,54.30
2023-06-30T16:17:20.548Z,54.00
2023-06-30T16:19:47.450Z,54.00
2023-06-30T16:22:14.233Z,54.00
2023-06-30T16:24:43.172Z,53.90
2023-06-30T16:27:11.940Z,54.10
2023-06-30T16:29:38.958Z,54.30
2023-06-30T16:32:07.591Z,54.10
2023-06-30T16:34:34.879Z,54.10
2023-06-30T16:37:02.423Z,54.50
2023-06-30T16:39:29.310Z,54.50
2023-06-30T16:41:56.208Z,54.60
2023-06-30T16:44:23.100Z,55.20
2023-06-30T16:46:50.020Z,54.90
2023-06-30T16:49:16.963Z,55.20
2023-06-30T16:51:43.912Z,55.20
2023-06-30T16:54:10.868Z,55.60
2023-06-30T16:56:38.089Z,55.80
2023-06-30T16:59:04.975Z,56.50
2023-06-30T17:01:32.089Z,55.80
2023-06-30T17:03:59.200Z,56.20
2023-06-30T17:06:26.965Z,56.20
2023-06-30T17:08:54.572Z,55.90
2023-06-30T17:11:21.597Z,56.10
2023-06-30T17:13:48.446Z,56.50
2023-06-30T17:16:15.487Z,56.90
2023-06-30T17:18:42.382Z,56.90
2023-06-30T17:21:09.219Z,57.70
2023-06-30T17:23:37.354Z,58.00
2023-06-30T17:26:04.279Z,57.80
2023-06-30T17:28:31.109Z,57.60
2023-06-30T17:30:57.973Z,58.00
2023-06-30T17:33:24.935Z,58.40
2023-06-30T17:35:51.781Z,58.40
2023-06-30T17:38:18.654Z,58.40
2023-06-30T17:40:45.503Z,58.30
2023-06-30T17:43:12.975Z,58.50
2023-06-30T17:45:42.871Z,58.80
2023-06-30T17:48:09.873Z,58.60
2023-06-30T17:50:36.806Z,59.00
2023-06-30T17:53:03.735Z,58.40
2023-06-30T17:55:30.619Z,57.20
2023-06-30T17:57:57.564Z,57.40
2023-06-30T18:00:24.487Z,57.30
2023-06-30T18:02:51.598Z,57.40
2023-06-30T18:05:18.572Z,57.40
2023-06-30T18:07:45.632Z,57.00
2023-06-30T18:10:14.995Z,57.00
2023-06-30T18:12:42.180Z,56.70
2023-06-30T18:15:10.153Z,56.70
2023-06-30T18:17:37.300Z,56.90
2023-06-30T18:20:05.430Z,56.80
2023-06-30T18:22:34.504Z,56.80
2023-06-30T18:25:01.384Z,56.50
2023-06-30T18:27:28.310Z,56.90
2023-06-30T18:29:55.176Z,57.10
2023-06-30T18:32:22.141Z,57.40
2023-06-30T18:34:49.841Z,57.40
2023-06-30T18:37:16.746Z,57.50
2023-06-30T18:39:43.600Z,57.30
2023-06-30T18:42:10.465Z,57.70
2023-06-30T18:44:38.282Z,57.80
2023-06-30T18:47:06.737Z,57.90
2023-06-30T18:49:34.364Z,58.00
2023-06-30T18:52:01.888Z,58.10
2023-06-30T18:54:28.840Z,58.80
2023-06-30T18:56:55.669Z,58.70
2023-06-30T18:59:22.567Z,58.90
2023-06-30T19:01:49.719Z,59.10
2023-06-30T19:04:17.230Z,59.20
2023-06-30T19:06:44.491Z,59.20
2023-06-30T19:09:11.430Z,59.20
2023-06-30T19:11:39.230Z,59.00
2023-06-30T19:14:06.100Z,59.20
2023-06-30T19:16:33.066Z,59.60
2023-06-30T19:19:00.065Z,61.00
2023-06-30T19:21:26.913Z,61.20
2023-06-30T19:23:54.036Z,60.20
2023-06-30T19:26:21.925Z,61.50
2023-06-30T19:28:49.975Z,60.60
2023-06-30T19:31:17.640Z,60.60
2023-06-30T19:33:44.591Z,61.50
2023-06-30T19:36:11.424Z,61.10
2023-06-30T19:38:38.441Z,61.10
2023-06-30T19:41:05.317Z,61.30
2023-06-30T19:43:32.218Z,61.40
2023-06-30T19:46:00.219Z,61.20
2023-06-30T19:48:27.261Z,61.50
2023-06-30T19:50:54.138Z,61.40
2023-06-30T19:53:21.321Z,61.40
2023-06-30T19:55:48.515Z,61.70
2023-06-30T19:58:16.089Z,61.90
2023-06-30T20:00:42.892Z,61.70
2023-06-30T20:03:09.966Z,61.90
2023-06-30T20:05:37.934Z,62.10
2023-06-30T20:08:05.109Z,62.10
2023-06-30T20:10:32.048Z,62.00
2023-06-30T20:12:59.207Z,62.60
2023-06-30T20:15:27.127Z,64.30
2023-06-30T20:17:54.448Z,64.10
2023-06-30T20:20:21.823Z,64.90
2023-06-30T20:22:48.733Z,65.50
2023-06-30T20:25:15.924Z,65.40
2023-06-30T20:27:44.806Z,65.30
2023-06-30T20:30:13.475Z,65.70
2023-06-30T20:32:40.431Z,65.50
2023-06-30T20:35:08.517Z,65.90
2023-06-30T20:37:35.984Z,65.60
2023-06-30T20:40:03.207Z,66.50
2023-06-30T20:42:30.049Z,67.30
2023-06-30T20:44:56.849Z,66.80
2023-06-30T20:47:24.992Z,67.10
2023-06-30T20:49:52.162Z,67.10
2023-06-30T20:52:19.248Z,67.20
2023-06-30T20:54:46.099Z,66.10
2023-06-30T20:57:12.966Z,66.40
2023-06-30T20:59:39.861Z,66.70
2023-06-30T21:02:07.907Z,67.30
2023-06-30T21:04:35.067Z,67.00
2023-06-30T21:07:02.030Z,66.90
2023-06-30T21:09:29.089Z,67.30
2023-06-30T21:11:55.889Z,67.50
2023-06-30T21:14:22.830Z,67.20
2023-06-30T21:16:49.805Z,67.10
2023-06-30T21:19:16.973Z,67.00
2023-06-30T21:21:44.014Z,67.00
2023-06-30T21:24:11.236Z,66.60
2023-06-30T21:26:38.942Z,67.10
2023-06-30T21:29:05.957Z,67.10
2023-06-30T21:31:33.016Z,67.10
2023-06-30T21:33:59.934Z,67.20
2023-06-30T21:36:26.747Z,67.50
2023-06-30T21:38:53.739Z,67.40
2023-06-30T21:41:22.888Z,67.00
2023-06-30T21:43:49.857Z,66.90
2023-06-30T21:46:17.438Z,66.70
2023-06-30T21:48:44.397Z,66.40
2023-06-30T21:51:11.446Z,66.60
2023-06-30T21:53:38.609Z,66.80
2023-06-30T21:56:05.717Z,67.00
2023-06-30T21:58:32.650Z,66.80
2023-06-30T22:00:59.569Z,66.70
2023-06-30T22:03:27.048Z,66.90
2023-06-30T22:05:54.212Z,66.80
2023-06-30T22:08:21.200Z,67.70
2023-06-30T22:10:48.440Z,67.30
2023-06-30T22:13:15.373Z,67.30
2023-06-30T22:15:42.484Z,67.50
2023-06-30T22:18:09.865Z,67.40
2023-06-30T22:20:36.756Z,67.60
2023-06-30T22:23:03.687Z,67.80
2023-06-30T22:25:30.889Z,67.30
2023-06-30T22:27:59.012Z,67.60
2023-06-30T22:30:27.148Z,67.30
2023-06-30T22:32:54.692Z,67.10
2023-06-30T22:35:22.525Z,66.80
2023-06-30T22:37:49.372Z,67.20
2023-06-30T22:40:19.873Z,67.80
2023-06-30T22:42:46.982Z,67.80
2023-06-30T22:45:14.564Z,68.10
2023-06-30T22:47:41.707Z,68.10
2023-06-30T22:50:09.863Z,68.40
2023-06-30T22:52:39.532Z,68.00
2023-06-30T22:55:09.937Z,68.40
2023-06-30T22:57:36.791Z,68.60
2023-06-30T23:00:05.407Z,68.20
2023-06-30T23:02:32.327Z,68.30
2023-06-30T23:04:59.346Z,68.80
2023-06-30T23:07:26.199Z,68.80
2023-06-30T23:09:53.010Z,69.20
2023-06-30T23:12:19.902Z,68.90
2023-06-30T23:14:46.721Z,68.90
2023-06-30T23:17:16.734Z,69.00
2023-06-30T23:19:53.461Z,68.90
2023-06-30T23:22:20.791Z,68.80
2023-06-30T23:24:48.312Z,69.30
2023-06-30T23:27:16.661Z,69.10
2023-06-30T23:29:45.784Z,69.50
2023-06-30T23:32:16.928Z,69.10
2023-06-30T23:34:44.249Z,69.40
2023-06-30T23:37:15.717Z,69.60
2023-06-30T23:39:42.623Z,69.50
2023-06-30T23:42:10.327Z,69.80
2023-06-30T23:44:37.616Z,69.80
2023-06-30T23:47:12.934Z,69.80
2023-06-30T23:49:41.037Z,69.80
2023-06-30T23:52:08.959Z,70.00
2023-06-30T23:54:35.784Z,70.40
2023-06-30T23:57:04.755Z,70.30
2023-06-30T23:59:31.661Z,70.30
